Time;durP1;ratioP1;P1;durP2;ratioP2;P2;SDS_P1;SDS_P2;PMS_P1;PMS_P2;Temp;Humidity;BMP_temperature;BMP_pressure;BME280_temperature;BME280_humidity;BME280_pressure;Samples;Min_cycle;Max_cycle;Signal;HPM_P1;HPM_P2
2024/02/12 00:00:44;;;;;;;7.72;3.95;;;9.30;99.90;;;;;;5025039;28;20402;-86
2024/02/12 00:03:10;;;;;;;4.55;2.83;;;9.30;99.90;;;;;;5024380;28;20068;-86
2024/02/12 00:05:36;;;;;;;9.98;2.83;;;9.30;99.90;;;;;;5032863;28;20057;-87
2024/02/12 00:08:10;;;;;;;6.60;2.75;;;9.20;99.90;;;;;;5039788;28;20029;-87
2024/02/12 00:10:39;;;;;;;5.70;2.70;;;9.30;99.90;;;;;;5029488;28;20022;-87
2024/02/12 00:13:05;;;;;;;5.30;2.65;;;9.30;99.90;;;;;;5040902;28;20022;-87
2024/02/12 00:15:30;;;;;;;4.70;2.47;;;9.30;99.90;;;;;;5028480;28;20033;-86
2024/02/12 00:17:59;;;;;;;8.98;2.65;;;9.30;99.90;;;;;;5026900;28;20118;-87
2024/02/12 00:20:26;;;;;;;3.10;2.35;;;9.30;99.90;;;;;;5031437;28;20037;-87
2024/02/12 00:22:52;;;;;;;4.53;2.03;;;9.30;99.90;;;;;;5024925;28;20515;-88
2024/02/12 00:25:18;;;;;;;3.03;2.05;;;9.30;99.90;;;;;;5026838;28;20025;-87
2024/02/12 00:27:44;;;;;;;5.03;2.60;;;9.30;99.90;;;;;;5032571;28;20521;-87
2024/02/12 00:30:12;;;;;;;7.03;1.90;;;9.30;99.90;;;;;;5028200;28;20049;-86
2024/02/12 00:32:37;;;;;;;4.43;1.88;;;9.30;99.90;;;;;;5029122;28;20025;-86
2024/02/12 00:35:03;;;;;;;2.30;1.58;;;9.30;99.90;;;;;;5025239;28;20243;-88
2024/02/12 00:37:29;;;;;;;2.63;1.80;;;9.30;99.90;;;;;;5031033;28;20414;-86
2024/02/12 00:39:54;;;;;;;2.10;1.58;;;9.30;99.90;;;;;;5023684;28;20021;-87
2024/02/12 00:42:23;;;;;;;2.55;1.60;;;9.30;99.90;;;;;;5024013;28;20171;-87
2024/02/12 00:44:49;;;;;;;2.90;1.70;;;9.30;99.90;;;;;;5025546;28;20102;-87
2024/02/12 00:47:15;;;;;;;2.05;1.40;;;9.30;99.90;;;;;;5029513;28;20108;-86
2024/02/12 00:49:43;;;;;;;4.90;1.58;;;9.30;99.90;;;;;;5034450;28;20014;-87
2024/02/12 00:52:10;;;;;;;1.67;1.58;;;9.30;99.90;;;;;;5029068;28;20021;-86
2024/02/12 00:54:39;;;;;;;2.20;1.20;;;9.30;99.90;;;;;;5024875;28;20014;-87
2024/02/12 00:57:06;;;;;;;1.35;1.23;;;9.30;99.90;;;;;;5026545;28;20053;-86
2024/02/12 00:59:32;;;;;;;2.10;1.63;;;9.30;99.90;;;;;;5026685;28;20102;-86
2024/02/12 01:01:57;;;;;;;2.40;1.27;;;9.30;99.90;;;;;;5022890;28;20161;-87
2024/02/12 01:04:23;;;;;;;1.48;1.33;;;9.20;99.90;;;;;;5034306;28;20053;-87
2024/02/12 01:06:48;;;;;;;3.55;1.60;;;9.20;99.90;;;;;;5030304;28;20029;-87
2024/02/12 01:09:14;;;;;;;2.55;1.20;;;9.20;99.90;;;;;;5037127;28;20044;-86
2024/02/12 01:11:42;;;;;;;1.65;1.20;;;9.20;99.90;;;;;;5016453;28;20022;-87
2024/02/12 01:14:08;;;;;;;1.85;1.35;;;9.20;99.90;;;;;;5024930;28;20028;-86
2024/02/12 01:16:34;;;;;;;2.28;1.30;;;9.20;99.90;;;;;;5037142;28;20026;-87
2024/02/12 01:18:59;;;;;;;2.25;1.45;;;9.20;99.90;;;;;;5024978;28;20100;-87
2024/02/12 01:21:33;;;;;;;1.50;1.30;;;9.20;99.90;;;;;;5023758;28;20105;-86
2024/02/12 01:24:01;;;;;;;1.60;1.23;;;9.20;99.90;;;;;;5026697;28;20183;-87
2024/02/12 01:26:27;;;;;;;1.15;1.05;;;9.20;99.90;;;;;;5027843;28;20384;-87
2024/02/12 01:28:53;;;;;;;3.13;1.10;;;9.20;99.90;;;;;;5025279;28;20029;-87
2024/02/12 01:31:19;;;;;;;1.08;0.90;;;9.20;99.90;;;;;;5025904;28;20025;-87
2024/02/12 01:33:46;;;;;;;1.98;1.15;;;9.20;99.90;;;;;;5031017;28;20067;-86
2024/02/12 01:36:16;;;;;;;3.30;0.90;;;9.20;99.90;;;;;;5025400;28;20114;-87
2024/02/12 01:38:42;;;;;;;1.40;1.30;;;9.20;99.90;;;;;;5035925;28;20064;-86
2024/02/12 01:41:07;;;;;;;3.85;1.15;;;9.20;99.90;;;;;;5027399;28;20507;-86
2024/02/12 01:43:36;;;;;;;2.40;1.42;;;9.20;99.90;;;;;;5025197;28;20058;-87
2024/02/12 01:46:05;;;;;;;1.55;1.27;;;9.20;99.90;;;;;;5025362;28;20491;-87
2024/02/12 01:48:38;;;;;;;1.13;0.90;;;9.20;99.90;;;;;;5028836;28;20063;-86
2024/02/12 01:51:07;;;;;;;1.30;1.00;;;9.20;99.90;;;;;;5023030;28;20026;-87
2024/02/12 01:53:40;;;;;;;1.60;1.20;;;9.20;99.90;;;;;;5024989;28;20025;-87
2024/02/12 01:56:07;;;;;;;1.20;1.10;;;9.10;99.90;;;;;;5022078;28;20021;-87
2024/02/12 01:58:43;;;;;;;1.25;1.15;;;9.20;99.90;;;;;;5027229;28;20027;-88
2024/02/12 02:01:13;;;;;;;1.50;1.25;;;9.20;99.90;;;;;;5025849;28;20035;-87
2024/02/12 02:03:42;;;;;;;1.33;1.23;;;9.20;99.90;;;;;;5027091;28;20022;-86
2024/02/12 02:06:08;;;;;;;2.47;1.38;;;9.20;99.90;;;;;;5024973;28;20276;-85
2024/02/12 02:08:36;;;;;;;1.63;1.27;;;9.20;99.90;;;;;;5027748;28;20033;-87
2024/02/12 02:11:04;;;;;;;4.07;1.35;;;9.20;99.90;;;;;;5029301;28;20065;-87
2024/02/12 02:13:38;;;;;;;3.35;1.25;;;9.20;99.90;;;;;;5021892;28;20026;-86
2024/02/12 02:16:04;;;;;;;1.58;1.30;;;9.20;99.90;;;;;;5028025;28;20049;-87
2024/02/12 02:18:31;;;;;;;2.83;1.48;;;9.20;99.90;;;;;;5030550;28;20483;-85
2024/02/12 02:20:57;;;;;;;2.90;1.08;;;9.20;99.90;;;;;;5027498;28;20022;-86
2024/02/12 02:23:27;;;;;;;1.10;1.00;;;9.20;99.90;;;;;;5030082;28;20026;-87
2024/02/12 02:25:54;;;;;;;3.55;1.40;;;9.20;99.90;;;;;;5023001;28;20026;-87
2024/02/12 02:28:20;;;;;;;2.13;1.17;;;9.20;99.90;;;;;;5035301;28;20430;-87
2024/02/12 02:30:48;;;;;;;2.25;1.48;;;9.20;99.90;;;;;;5027321;28;20033;-86
2024/02/12 02:33:17;;;;;;;2.08;1.08;;;9.20;99.90;;;;;;5027659;28;20053;-86
2024/02/12 02:35:44;;;;;;;1.92;1.20;;;9.20;99.90;;;;;;5029152;28;20048;-87
2024/02/12 02:38:11;;;;;;;1.80;1.60;;;9.20;99.90;;;;;;5023215;28;20037;-85
2024/02/12 02:40:37;;;;;;;3.22;1.20;;;9.20;99.90;;;;;;5042167;28;20028;-86
2024/02/12 02:43:03;;;;;;;1.23;1.05;;;9.20;99.90;;;;;;5025275;28;20329;-88
2024/02/12 02:45:28;;;;;;;2.97;1.27;;;9.20;99.90;;;;;;5032356;28;20550;-86
2024/02/12 02:47:56;;;;;;;2.17;1.20;;;9.20;99.90;;;;;;5017750;28;20440;-87
2024/02/12 02:50:22;;;;;;;1.50;1.40;;;9.20;99.90;;;;;;5036531;28;20429;-86
2024/02/12 02:52:48;;;;;;;3.22;1.50;;;9.20;99.90;;;;;;5029667;28;20017;-87
2024/02/12 02:55:16;;;;;;;2.10;1.45;;;9.20;99.90;;;;;;5018025;28;20627;-87
2024/02/12 02:57:44;;;;;;;1.83;1.40;;;9.20;99.90;;;;;;5025761;28;20017;-87
2024/02/12 03:00:11;;;;;;;1.50;1.20;;;9.10;99.90;;;;;;5024281;28;20029;-87
2024/02/12 03:02:36;;;;;;;1.52;1.40;;;9.10;99.90;;;;;;5032369;28;20070;-87
2024/02/12 03:05:03;;;;;;;1.35;1.25;;;9.10;99.90;;;;;;5021077;28;20388;-86
2024/02/12 03:07:29;;;;;;;1.55;1.30;;;9.10;99.90;;;;;;5023251;28;20033;-87
2024/02/12 03:09:55;;;;;;;1.52;1.30;;;9.10;99.90;;;;;;5029447;28;20021;-87
2024/02/12 03:12:21;;;;;;;1.75;1.35;;;9.10;99.90;;;;;;5025387;28;20018;-86
2024/02/12 03:14:47;;;;;;;1.38;1.27;;;9.20;99.90;;;;;;5028914;28;20029;-86
2024/02/12 03:17:12;;;;;;;1.63;1.10;;;9.20;99.90;;;;;;5023361;28;20026;-86
2024/02/12 03:19:39;;;;;;;4.72;1.70;;;9.20;99.90;;;;;;5025150;28;20027;-86
2024/02/12 03:22:06;;;;;;;3.95;1.30;;;9.20;99.90;;;;;;5031696;28;20021;-87
2024/02/12 03:24:32;;;;;;;6.38;1.20;;;9.20;99.90;;;;;;5030732;28;20494;-86
2024/02/12 03:26:58;;;;;;;1.15;1.15;;;9.10;99.90;;;;;;5031335;28;20033;-87
2024/02/12 03:29:24;;;;;;;2.08;1.27;;;9.10;99.90;;;;;;5035429;28;20029;-87
2024/02/12 03:31:50;;;;;;;3.67;1.50;;;9.10;99.90;;;;;;5030400;28;20018;-87
2024/02/12 03:34:15;;;;;;;2.25;1.40;;;9.10;99.90;;;;;;5030205;28;20034;-86
2024/02/12 03:36:42;;;;;;;1.83;1.35;;;9.10;99.90;;;;;;5028721;28;20021;-86
2024/02/12 03:39:08;;;;;;;1.70;1.30;;;9.10;99.90;;;;;;5026783;28;20022;-86
2024/02/12 03:41:34;;;;;;;2.20;1.38;;;9.10;99.90;;;;;;5039393;28;20025;-87
2024/02/12 03:44:00;;;;;;;3.15;1.73;;;9.10;99.90;;;;;;5023832;28;20079;-86
2024/02/12 03:46:31;;;;;;;1.92;1.50;;;9.20;99.90;;;;;;5035335;28;20037;-86
2024/02/12 03:59:53;;;;;;;3.70;1.70;;;9.20;99.90;;;;;;5028843;28;20035;-87
2024/02/12 04:02:23;;;;;;;1.42;1.33;;;9.10;99.90;;;;;;5028185;28;20116;-87
2024/02/12 04:04:49;;;;;;;1.83;1.40;;;9.10;99.90;;;;;;5031530;28;20479;-87
2024/02/12 04:07:16;;;;;;;1.92;1.48;;;9.10;99.90;;;;;;5035156;28;20038;-87
2024/02/12 04:09:42;;;;;;;3.00;1.55;;;9.10;99.90;;;;;;5034040;28;20025;-86
2024/02/12 04:12:11;;;;;;;1.65;1.38;;;9.10;99.90;;;;;;5043834;28;20021;-86
2024/02/12 04:14:42;;;;;;;3.72;1.40;;;9.10;99.90;;;;;;5034273;28;20044;-87
2024/02/12 04:17:09;;;;;;;;;;;9.10;99.90;;;;;;5027625;28;20058;-87
2024/02/12 04:19:35;;;;;;;1.30;1.20;;;9.10;99.90;;;;;;5025978;28;19909;-86
2024/02/12 04:22:01;;;;;;;1.50;1.40;;;9.10;99.90;;;;;;5022005;28;20026;-87
2024/02/12 04:24:29;;;;;;;1.30;1.17;;;9.10;99.90;;;;;;5038600;28;20037;-87
2024/02/12 04:26:55;;;;;;;1.83;1.52;;;9.10;99.90;;;;;;5039409;28;20052;-87
2024/02/12 04:29:21;;;;;;;1.55;1.30;;;9.10;99.90;;;;;;5030028;28;20404;-86
2024/02/12 04:31:50;;;;;;;1.50;1.23;;;9.10;99.90;;;;;;5029264;28;20578;-87
2024/02/12 04:34:15;;;;;;;1.30;1.20;;;9.20;99.90;;;;;;5036269;28;20029;-87
2024/02/12 04:36:44;;;;;;;1.40;1.15;;;9.20;99.90;;;;;;5031264;28;20025;-87
2024/02/12 04:39:14;;;;;;;1.48;1.38;;;9.20;99.90;;;;;;5025979;28;20125;-86
2024/02/12 04:41:40;;;;;;;1.17;1.10;;;9.20;99.90;;;;;;5030024;28;20021;-87
2024/02/12 04:44:07;;;;;;;2.90;1.33;;;9.10;99.90;;;;;;5032385;28;20056;-87
2024/02/12 04:46:34;;;;;;;1.38;1.05;;;9.10;99.90;;;;;;5028867;28;20066;-87
2024/02/12 04:49:00;;;;;;;1.20;1.10;;;9.20;99.90;;;;;;5026189;28;20105;-86
2024/02/12 04:51:26;;;;;;;0.93;0.82;;;9.10;99.90;;;;;;5030079;28;20083;-86
2024/02/12 04:53:54;;;;;;;1.83;1.02;;;9.10;99.90;;;;;;5031788;28;20025;-86
2024/02/12 04:56:19;;;;;;;0.90;0.85;;;9.10;99.90;;;;;;5023560;28;20048;-86
2024/02/12 04:58:45;;;;;;;1.40;1.17;;;9.10;99.90;;;;;;5026883;28;20479;-87
2024/02/12 05:01:10;;;;;;;1.33;1.20;;;9.10;99.90;;;;;;5032708;28;20028;-86
2024/02/12 05:03:36;;;;;;;1.80;1.02;;;9.10;99.90;;;;;;5029591;28;20506;-87
2024/02/12 05:06:02;;;;;;;1.05;0.88;;;9.10;99.90;;;;;;5028094;28;20035;-87
2024/02/12 05:08:28;;;;;;;0.85;0.85;;;9.10;99.90;;;;;;5023472;28;20021;-86
2024/02/12 05:10:56;;;;;;;1.77;1.23;;;9.10;99.90;;;;;;5030610;28;20044;-87
2024/02/12 05:13:23;;;;;;;1.20;1.10;;;9.10;99.90;;;;;;5020765;28;20568;-87
2024/02/12 05:15:50;;;;;;;2.17;1.40;;;9.10;99.90;;;;;;5021145;28;20068;-86
2024/02/12 05:23:44;;;;;;;1.75;1.40;;;9.10;99.90;;;;;;5027775;28;20539;-87
2024/02/12 05:26:10;;;;;;;1.70;1.27;;;9.10;99.90;;;;;;5022027;28;20037;-87
2024/02/12 05:28:36;;;;;;;1.45;1.20;;;9.10;99.90;;;;;;5041623;28;20029;-86
2024/02/12 05:31:03;;;;;;;1.58;1.33;;;9.10;99.90;;;;;;5026212;28;20474;-87
2024/02/12 05:33:31;;;;;;;1.20;1.10;;;9.10;99.90;;;;;;5024369;28;20033;-87
2024/02/12 05:35:57;;;;;;;1.00;0.90;;;9.10;99.90;;;;;;5035154;28;20048;-87
2024/02/12 05:38:23;;;;;;;1.83;1.40;;;9.10;99.90;;;;;;5042062;28;20022;-86
2024/02/12 05:40:48;;;;;;;1.58;1.20;;;9.10;99.90;;;;;;5032104;28;20083;-86
2024/02/12 05:43:14;;;;;;;1.50;1.20;;;9.10;99.90;;;;;;5030522;28;20033;-87
2024/02/12 05:45:40;;;;;;;1.65;1.20;;;9.10;99.90;;;;;;5032406;28;20445;-86
2024/02/12 05:48:06;;;;;;;1.17;1.08;;;9.10;99.90;;;;;;5024072;28;20105;-87
2024/02/12 05:50:32;;;;;;;3.08;1.15;;;9.10;99.90;;;;;;5026460;28;20139;-86
2024/02/12 05:52:59;;;;;;;1.83;1.38;;;9.10;99.90;;;;;;5031235;28;20420;-86
2024/02/12 05:55:25;;;;;;;1.40;1.30;;;9.10;99.90;;;;;;5046776;28;20030;-87
2024/02/12 05:57:50;;;;;;;3.33;1.38;;;9.10;99.90;;;;;;5033882;28;20028;-87
2024/02/12 06:00:16;;;;;;;1.23;1.13;;;9.10;99.90;;;;;;5027293;28;20025;-87
2024/02/12 06:02:42;;;;;;;1.63;1.15;;;9.10;99.90;;;;;;5029062;28;20029;-86
2024/02/12 06:05:08;;;;;;;2.03;1.30;;;9.10;99.90;;;;;;5025668;28;20106;-87
2024/02/12 06:07:34;;;;;;;1.10;1.00;;;9.10;99.90;;;;;;5031495;28;20118;-87
2024/02/12 06:09:59;;;;;;;1.83;1.40;;;9.10;99.90;;;;;;5029271;28;20391;-86
2024/02/12 06:12:25;;;;;;;1.60;1.23;;;9.10;99.90;;;;;;5030923;28;20029;-86
2024/02/12 06:14:50;;;;;;;1.60;1.40;;;9.10;99.90;;;;;;5033851;28;20506;-87
2024/02/12 06:17:18;;;;;;;1.85;1.20;;;9.10;99.90;;;;;;5033483;28;20053;-87
2024/02/12 06:19:43;;;;;;;1.42;1.20;;;9.10;99.90;;;;;;5027379;28;20017;-87
2024/02/12 06:22:11;;;;;;;1.98;1.30;;;9.10;99.90;;;;;;5027036;28;20029;-87
2024/02/12 06:24:37;;;;;;;3.58;1.33;;;9.20;99.90;;;;;;5019056;28;20041;-87
2024/02/12 06:27:02;;;;;;;2.17;1.50;;;9.10;99.90;;;;;;5027431;28;20026;-87
2024/02/12 06:29:28;;;;;;;2.38;1.38;;;9.10;99.90;;;;;;5024410;28;20026;-88
2024/02/12 06:31:53;;;;;;;1.38;1.27;;;9.10;99.90;;;;;;5026908;28;20053;-87
2024/02/12 06:34:19;;;;;;;1.30;1.20;;;9.20;99.90;;;;;;5026377;28;20447;-87
2024/02/12 06:36:45;;;;;;;1.50;1.23;;;9.20;99.90;;;;;;5028525;28;20377;-87
2024/02/12 06:39:11;;;;;;;3.40;1.45;;;9.10;99.90;;;;;;5030591;28;20021;-87
2024/02/12 06:41:36;;;;;;;1.75;1.40;;;9.20;99.90;;;;;;5023856;28;20079;-86
2024/02/12 06:44:02;;;;;;;2.58;1.42;;;9.20;99.90;;;;;;5031681;28;20017;-86
2024/02/12 06:46:27;;;;;;;2.05;0.95;;;9.20;99.90;;;;;;5018628;28;20026;-87
2024/02/12 06:48:53;;;;;;;1.45;1.10;;;9.20;99.90;;;;;;5028965;28;20109;-88
2024/02/12 06:51:19;;;;;;;1.85;1.17;;;9.20;99.90;;;;;;5030013;28;20104;-87
2024/02/12 06:53:45;;;;;;;2.03;1.38;;;9.10;99.90;;;;;;5027263;28;20411;-86
2024/02/12 06:56:10;;;;;;;0.95;0.80;;;9.10;99.90;;;;;;5033256;28;20018;-86
2024/02/12 06:58:36;;;;;;;2.08;1.20;;;9.10;99.90;;;;;;5032665;28;20029;-86
2024/02/12 07:01:04;;;;;;;1.98;1.20;;;9.10;99.90;;;;;;5040285;28;20025;-86
2024/02/12 07:03:32;;;;;;;1.10;1.00;;;9.10;99.90;;;;;;5024830;28;20028;-86
2024/02/12 07:05:58;;;;;;;1.15;0.98;;;9.10;99.90;;;;;;5033230;28;20021;-87
2024/02/12 07:08:24;;;;;;;1.77;1.00;;;9.20;99.90;;;;;;5030051;28;20025;-87
2024/02/12 07:10:51;;;;;;;1.45;1.02;;;9.10;99.90;;;;;;5027310;28;20018;-88
2024/02/12 07:13:17;;;;;;;1.48;0.75;;;9.10;99.90;;;;;;5026870;28;20029;-86
2024/02/12 07:15:43;;;;;;;1.92;1.20;;;9.10;99.90;;;;;;5034357;28;20022;-86
2024/02/12 07:18:08;;;;;;;1.42;0.98;;;9.10;99.90;;;;;;5027791;28;20022;-86
2024/02/12 07:20:34;;;;;;;3.22;1.05;;;9.10;99.90;;;;;;5032360;28;20504;-87
2024/02/12 07:23:00;;;;;;;2.35;1.25;;;9.20;99.90;;;;;;5029711;28;20104;-86
2024/02/12 07:25:26;;;;;;;1.35;1.25;;;9.20;99.90;;;;;;5029057;28;20456;-86
2024/02/12 07:27:51;;;;;;;2.13;1.25;;;9.20;99.90;;;;;;5031295;28;20384;-86
2024/02/12 07:30:17;;;;;;;1.05;0.95;;;9.20;99.90;;;;;;5029042;28;20106;-87
2024/02/12 07:32:44;;;;;;;1.73;1.02;;;9.20;99.90;;;;;;5026692;28;20072;-87
2024/02/12 07:35:10;;;;;;;1.08;0.90;;;9.20;99.90;;;;;;5035232;28;20390;-87
2024/02/12 07:37:38;;;;;;;1.20;1.10;;;9.20;99.90;;;;;;5032885;28;20104;-86
2024/02/12 07:40:07;;;;;;;0.90;0.90;;;9.20;99.90;;;;;;5024598;28;20471;-87
2024/02/12 07:42:35;;;;;;;1.63;1.20;;;9.20;99.90;;;;;;5036072;28;20398;-86
2024/02/12 07:45:01;;;;;;;1.42;1.00;;;9.30;99.90;;;;;;5019923;28;20771;-87
2024/02/12 07:47:26;;;;;;;1.20;1.10;;;9.30;99.90;;;;;;5034120;28;20021;-87
2024/02/12 07:49:52;;;;;;;1.42;1.10;;;9.30;99.90;;;;;;5035915;28;20072;-87
2024/02/12 07:52:18;;;;;;;1.10;0.93;;;9.30;99.90;;;;;;5028953;28;20026;-87
2024/02/12 07:54:44;;;;;;;1.73;1.10;;;9.30;99.90;;;;;;5028953;28;20521;-88
2024/02/12 07:57:12;;;;;;;1.02;0.90;;;9.30;99.90;;;;;;5029670;28;20028;-86
2024/02/12 07:59:39;;;;;;;2.72;1.35;;;9.30;99.90;;;;;;5030038;28;20483;-86
2024/02/12 08:02:07;;;;;;;1.85;1.02;;;9.30;99.90;;;;;;5032760;28;20415;-86
2024/02/12 08:04:32;;;;;;;1.55;1.20;;;9.30;99.90;;;;;;5029692;28;20026;-87
2024/02/12 08:06:58;;;;;;;2.00;1.10;;;9.30;99.90;;;;;;5032484;28;20074;-85
2024/02/12 08:09:23;;;;;;;1.60;1.02;;;9.30;99.90;;;;;;5032602;28;20022;-87
2024/02/12 08:11:50;;;;;;;1.00;0.90;;;9.30;99.90;;;;;;5030493;28;20466;-86
2024/02/12 08:14:16;;;;;;;2.97;1.45;;;9.30;99.90;;;;;;5025606;28;20014;-87
2024/02/12 08:16:45;;;;;;;3.35;0.90;;;9.30;99.90;;;;;;5041386;28;20100;-86
2024/02/12 08:19:10;;;;;;;1.83;1.05;;;9.30;99.90;;;;;;5030942;28;20108;-86
2024/02/12 08:21:36;;;;;;;3.03;1.00;;;9.30;99.90;;;;;;5028488;28;20224;-88
2024/02/12 08:24:03;;;;;;;2.08;1.38;;;9.30;99.90;;;;;;5029503;28;20069;-86
2024/02/12 08:26:29;;;;;;;1.90;1.02;;;9.30;99.90;;;;;;5035261;28;20108;-86
2024/02/12 08:28:55;;;;;;;3.35;1.20;;;9.30;99.90;;;;;;5033375;28;20044;-87
2024/02/12 08:31:21;;;;;;;0.95;0.90;;;9.30;99.90;;;;;;5031333;28;20022;-86
2024/02/12 08:33:47;;;;;;;0.88;0.88;;;9.30;99.90;;;;;;5028492;28;20492;-87
2024/02/12 08:36:14;;;;;;;3.42;1.20;;;9.30;99.90;;;;;;5035067;28;20088;-87
2024/02/12 08:38:40;;;;;;;1.83;1.00;;;9.40;99.90;;;;;;5027991;28;20346;-86
2024/02/12 08:41:05;;;;;;;1.70;1.00;;;9.40;99.90;;;;;;5044307;28;20031;-86
2024/02/12 08:43:31;;;;;;;1.10;1.00;;;9.40;99.90;;;;;;5045571;28;20029;-87
2024/02/12 08:45:57;;;;;;;1.20;1.10;;;9.40;99.90;;;;;;5029848;28;20032;-87
2024/02/12 08:48:22;;;;;;;2.78;1.20;;;9.40;99.90;;;;;;5031046;28;20480;-86
2024/02/12 08:50:51;;;;;;;1.92;1.27;;;9.40;99.90;;;;;;5028278;28;20026;-85
2024/02/12 08:53:16;;;;;;;2.20;1.23;;;9.50;99.90;;;;;;5033620;28;20028;-87
2024/02/12 08:55:42;;;;;;;2.58;1.13;;;9.50;99.90;;;;;;5031635;28;20025;-87
2024/02/12 08:58:10;;;;;;;2.47;1.30;;;9.60;99.90;;;;;;5027420;28;20479;-86
2024/02/12 09:00:37;;;;;;;1.77;1.10;;;9.70;99.90;;;;;;5030934;28;20029;-88
2024/02/12 09:03:04;;;;;;;0.90;0.90;;;9.90;99.90;;;;;;5027192;28;20565;-86
2024/02/12 09:05:30;;;;;;;4.00;1.33;;;10.00;99.90;;;;;;5032255;28;20172;-87
2024/02/12 09:07:55;;;;;;;1.83;1.50;;;10.00;99.90;;;;;;5033271;28;20120;-86
2024/02/12 09:10:21;;;;;;;2.08;1.48;;;10.00;99.90;;;;;;5017572;28;20022;-86
2024/02/12 09:12:46;;;;;;;1.95;1.30;;;9.90;99.90;;;;;;5031344;28;20017;-87
2024/02/12 09:15:16;;;;;;;3.75;1.48;;;9.80;99.90;;;;;;5030952;28;20018;-87
2024/02/12 09:17:44;;;;;;;1.92;1.35;;;9.80;99.90;;;;;;5037892;28;20018;-89
2024/02/12 09:20:12;;;;;;;4.75;1.63;;;9.70;99.90;;;;;;5028761;28;20029;-88
2024/02/12 09:22:38;;;;;;;6.55;1.48;;;9.70;99.90;;;;;;5026906;28;20021;-87
2024/02/12 09:25:04;;;;;;;3.22;1.17;;;9.70;99.90;;;;;;5026892;28;20017;-87
2024/02/12 09:27:30;;;;;;;1.45;1.25;;;9.70;99.90;;;;;;5051564;28;20421;-87
2024/02/12 09:29:57;;;;;;;1.92;1.42;;;9.60;99.90;;;;;;5023400;28;20442;-87
2024/02/12 09:32:23;;;;;;;2.70;1.10;;;9.60;99.90;;;;;;5022683;28;20021;-87
2024/02/12 09:34:49;;;;;;;4.93;1.52;;;9.60;99.90;;;;;;5035190;28;20049;-86
2024/02/12 09:37:14;;;;;;;2.45;1.52;;;9.60;99.90;;;;;;5024356;28;20454;-87
2024/02/12 09:39:40;;;;;;;2.78;1.40;;;9.60;99.90;;;;;;5024923;28;20026;-87
2024/02/12 09:42:06;;;;;;;3.20;1.55;;;9.70;99.90;;;;;;5022868;28;20028;-87
2024/02/12 09:44:33;;;;;;;3.10;1.50;;;9.90;99.90;;;;;;5026081;28;20026;-87
2024/02/12 09:47:09;;;;;;;3.28;1.50;;;10.00;99.90;;;;;;5037839;28;20144;-87
2024/02/12 09:49:35;;;;;;;2.55;1.63;;;10.30;99.90;;;;;;5022765;28;20034;-87
2024/02/12 09:52:03;;;;;;;5.13;1.55;;;10.40;99.90;;;;;;5025011;28;20079;-87
2024/02/12 09:54:30;;;;;;;4.28;1.67;;;10.40;99.90;;;;;;5022150;28;20025;-87
2024/02/12 09:56:57;;;;;;;2.05;1.25;;;10.30;99.90;;;;;;5030672;28;20482;-87
2024/02/12 09:59:23;;;;;;;2.97;1.77;;;10.10;99.90;;;;;;5027017;28;20036;-87
2024/02/12 10:01:49;;;;;;;2.20;1.45;;;10.00;99.90;;;;;;5033207;28;20100;-88
2024/02/12 10:04:14;;;;;;;3.42;1.50;;;9.90;99.90;;;;;;5026716;28;20061;-87
2024/02/12 10:06:40;;;;;;;3.17;1.73;;;9.90;99.90;;;;;;5012666;28;20116;-87
2024/02/12 10:09:07;;;;;;;3.65;1.80;;;9.80;99.90;;;;;;5022013;28;20022;-87
2024/02/12 10:11:33;;;;;;;3.42;1.63;;;9.70;99.90;;;;;;5020605;28;20029;-86
2024/02/12 10:14:05;;;;;;;7.20;1.77;;;9.70;99.90;;;;;;5036750;28;20041;-88
2024/02/12 10:16:31;;;;;;;2.17;1.52;;;9.60;99.90;;;;;;5023654;28;20009;-89
2024/02/12 10:18:58;;;;;;;1.48;1.27;;;9.60;99.90;;;;;;5040899;28;20109;-87
2024/02/12 10:21:24;;;;;;;2.25;1.50;;;9.60;99.90;;;;;;5024376;28;20519;-89
2024/02/12 10:23:51;;;;;;;8.20;1.83;;;9.60;99.90;;;;;;5030220;28;20041;-87
2024/02/12 10:26:23;;;;;;;3.65;1.80;;;9.60;99.90;;;;;;5026722;28;20414;-87
2024/02/12 10:28:57;;;;;;;5.18;1.75;;;9.50;99.90;;;;;;5053590;28;20112;-88
2024/02/12 10:31:26;;;;;;;4.30;1.48;;;9.50;99.90;;;;;;5026309;28;20049;-87
2024/02/12 10:33:52;;;;;;;3.90;1.80;;;9.60;99.90;;;;;;5026523;28;20028;-90
2024/02/12 10:36:19;;;;;;;7.07;1.60;;;9.60;99.90;;;;;;5023360;28;20022;-89
2024/02/12 10:38:48;;;;;;;4.63;1.88;;;9.60;99.90;;;;;;5037040;28;20017;-87
2024/02/12 10:41:32;;;;;;;2.70;1.42;;;9.70;99.90;;;;;;5038687;28;20025;-87
2024/02/12 10:43:58;;;;;;;5.75;2.05;;;9.70;99.90;;;;;;5027766;28;20045;-88
2024/02/12 10:46:34;;;;;;;4.32;1.73;;;9.70;99.90;;;;;;5037382;28;20024;-89
2024/02/12 10:49:01;;;;;;;2.50;1.48;;;9.60;99.90;;;;;;5027331;28;20468;-89
2024/02/12 10:51:28;;;;;;;2.67;1.92;;;9.60;99.90;;;;;;5028206;28;20456;-87
2024/02/12 10:53:55;;;;;;;3.13;1.70;;;9.60;99.90;;;;;;5028392;28;20041;-87
2024/02/12 10:56:22;;;;;;;3.35;1.50;;;9.50;99.90;;;;;;5026369;28;20403;-87
2024/02/12 10:58:49;;;;;;;2.22;1.60;;;9.50;99.90;;;;;;5035244;28;20078;-88
2024/02/12 11:01:15;;;;;;;5.03;1.80;;;9.50;99.90;;;;;;5037887;28;20132;-87
2024/02/12 11:03:45;;;;;;;1.73;1.58;;;9.50;99.90;;;;;;5036541;28;20040;-91
2024/02/12 11:06:11;;;;;;;4.05;1.90;;;9.50;99.90;;;;;;5021890;28;20107;-88
2024/02/12 11:08:41;;;;;;;2.88;1.98;;;9.50;99.90;;;;;;5026335;28;20061;-88
2024/02/12 11:11:20;;;;;;;2.13;1.48;;;9.50;99.90;;;;;;5033659;28;20022;-87
2024/02/12 11:13:47;;;;;;;3.20;2.00;;;9.50;99.90;;;;;;5030412;28;20052;-89
2024/02/12 11:16:16;;;;;;;5.25;1.75;;;9.50;99.90;;;;;;5047113;28;20060;-88
2024/02/12 11:18:42;;;;;;;3.70;1.90;;;9.50;99.90;;;;;;5037729;28;20022;-91
2024/02/12 11:21:09;;;;;;;3.75;1.77;;;9.50;99.90;;;;;;5027971;28;20471;-87
2024/02/12 11:23:35;;;;;;;4.10;1.77;;;9.50;99.90;;;;;;5038857;28;20024;-88
2024/02/12 11:26:01;;;;;;;3.22;1.80;;;9.50;99.90;;;;;;5033124;28;20104;-87
2024/02/12 11:28:31;;;;;;;2.95;1.67;;;9.40;99.90;;;;;;5025810;28;20021;-90
2024/02/12 11:30:57;;;;;;;3.08;1.70;;;9.40;99.90;;;;;;5022720;28;20104;-87
2024/02/12 11:33:27;;;;;;;2.80;1.70;;;9.50;99.90;;;;;;5023267;28;20487;-87
2024/02/12 11:36:07;;;;;;;3.53;1.73;;;9.40;99.90;;;;;;5023650;28;20029;-87
2024/02/12 11:38:35;;;;;;;5.68;1.33;;;9.50;99.90;;;;;;5026785;28;20026;-87
2024/02/12 11:41:00;;;;;;;4.60;1.88;;;9.40;99.90;;;;;;5037488;28;20104;-90
2024/02/12 11:43:27;;;;;;;2.20;1.58;;;9.50;99.90;;;;;;5031087;28;20056;-87
2024/02/12 11:46:02;;;;;;;2.58;1.70;;;9.50;99.90;;;;;;5033430;28;20057;-87
2024/02/12 11:48:29;;;;;;;2.50;1.52;;;9.50;99.90;;;;;;5037604;28;20074;-88
2024/02/12 11:50:57;;;;;;;2.95;1.50;;;9.50;99.90;;;;;;5030448;28;20016;-86
2024/02/12 11:53:25;;;;;;;2.13;1.55;;;9.60;99.90;;;;;;5031514;28;20378;-89
2024/02/12 11:55:51;;;;;;;3.80;1.73;;;9.70;99.90;;;;;;5032519;28;20052;-86
2024/02/12 11:58:17;;;;;;;2.22;1.63;;;9.80;99.90;;;;;;5034384;28;20041;-89
2024/02/12 12:00:44;;;;;;;1.98;1.40;;;9.90;99.90;;;;;;5033811;28;20053;-87
2024/02/12 12:03:10;;;;;;;2.08;1.60;;;9.90;99.90;;;;;;5033052;28;20682;-87
2024/02/12 12:05:38;;;;;;;4.28;2.13;;;9.90;99.90;;;;;;5022422;28;20025;-88
2024/02/12 12:08:06;;;;;;;2.00;1.77;;;9.80;99.90;;;;;;5027469;28;20480;-89
2024/02/12 12:10:34;;;;;;;6.18;1.70;;;9.80;99.90;;;;;;5034960;28;20577;-86
2024/02/12 12:13:00;;;;;;;2.50;1.38;;;9.70;99.90;;;;;;5031685;28;20065;-87
2024/02/12 12:15:28;;;;;;;3.63;1.60;;;9.70;99.90;;;;;;5036514;28;20104;-87
2024/02/12 12:17:54;;;;;;;1.58;1.45;;;9.70;99.90;;;;;;5026128;28;20022;-87
2024/02/12 12:20:20;;;;;;;2.20;1.67;;;9.60;99.90;;;;;;5024502;28;20065;-86
2024/02/12 12:22:47;;;;;;;5.32;1.48;;;9.60;99.90;;;;;;5029189;28;20018;-89
2024/02/12 12:25:13;;;;;;;2.40;1.80;;;9.60;99.90;;;;;;5032225;28;20022;-89
2024/02/12 12:27:39;;;;;;;2.63;1.38;;;9.60;99.90;;;;;;5034721;28;20017;-87
2024/02/12 12:30:14;;;;;;;2.35;1.50;;;9.60;99.90;;;;;;5032571;28;20526;-88
2024/02/12 12:32:41;;;;;;;3.45;1.70;;;9.60;99.90;;;;;;5018422;28;20480;-87
2024/02/12 12:35:08;;;;;;;1.40;1.30;;;9.60;99.90;;;;;;5026636;28;20072;-90
2024/02/12 12:37:35;;;;;;;3.08;1.75;;;9.60;99.90;;;;;;5018218;28;20025;-87
2024/02/12 12:40:00;;;;;;;1.67;1.55;;;9.60;99.90;;;;;;5026671;28;20041;-87
2024/02/12 12:42:26;;;;;;;2.30;1.40;;;9.60;99.90;;;;;;5029847;28;20404;-86
2024/02/12 12:44:51;;;;;;;2.35;1.45;;;9.60;99.90;;;;;;5028853;28;20028;-86
2024/02/12 12:47:20;;;;;;;1.67;1.35;;;9.60;99.90;;;;;;5026017;28;20026;-86
2024/02/12 12:49:46;;;;;;;1.40;1.30;;;9.60;99.90;;;;;;5023333;28;20497;-87
2024/02/12 12:52:12;;;;;;;1.88;1.40;;;9.60;99.90;;;;;;5028952;28;20025;-86
2024/02/12 12:54:38;;;;;;;2.10;1.42;;;9.60;99.90;;;;;;5030353;28;20013;-87
2024/02/12 12:57:04;;;;;;;2.15;1.38;;;9.70;99.90;;;;;;5029041;28;20022;-87
2024/02/12 12:59:29;;;;;;;1.55;1.20;;;9.70;99.90;;;;;;5035280;28;20036;-86
2024/02/12 13:01:55;;;;;;;2.25;1.42;;;9.60;99.90;;;;;;5051026;28;20414;-87
2024/02/12 13:04:21;;;;;;;1.02;1.00;;;9.70;99.90;;;;;;5027559;28;20491;-86
2024/02/12 13:06:50;;;;;;;1.20;1.02;;;9.70;99.90;;;;;;5030329;28;20033;-86
2024/02/12 13:09:17;;;;;;;1.27;1.00;;;9.70;99.90;;;;;;5022169;28;20393;-88
2024/02/12 13:11:43;;;;;;;1.65;1.02;;;9.70;99.90;;;;;;5023306;28;20014;-87